Time;durP1;ratioP1;P1;durP2;ratioP2;P2;SDS_P1;SDS_P2;PMS_P1;PMS_P2;Temp;Humidity;BMP_temperature;BMP_pressure;BME280_temperature;BME280_humidity;BME280_pressure;Samples;Min_cycle;Max_cycle;Signal;HPM_P1;HPM_P2
2023/05/25 00:01:11;;;;;;;4.30;3.85;;;8.80;99.90;;;;;;4939794;28;93903;-32
2023/05/25 00:03:39;;;;;;;14.82;4.72;;;8.80;99.90;;;;;;4939932;28;92712;-31
2023/05/25 00:06:06;;;;;;;3.97;3.60;;;8.80;99.90;;;;;;4939287;28;94484;-35
2023/05/25 00:08:31;;;;;;;7.70;3.38;;;8.80;99.90;;;;;;4939758;28;94670;-35
2023/05/25 00:10:57;;;;;;;8.02;4.15;;;8.70;99.90;;;;;;4940339;28;92467;-31
2023/05/25 00:13:23;;;;;;;4.78;2.80;;;8.70;99.90;;;;;;4939592;28;94743;-31
2023/05/25 00:15:49;;;;;;;5.78;4.00;;;8.60;99.90;;;;;;4939818;28;94440;-36
2023/05/25 00:18:15;;;;;;;4.28;3.33;;;8.60;99.90;;;;;;4939612;28;96514;-32
2023/05/25 00:20:40;;;;;;;4.45;3.50;;;8.60;99.90;;;;;;4940155;28;92300;-34
2023/05/25 00:23:06;;;;;;;6.90;3.55;;;8.60;99.90;;;;;;4939804;28;92863;-36
2023/05/25 00:25:31;;;;;;;14.77;4.57;;;8.60;99.90;;;;;;4938816;28;96185;-33
2023/05/25 00:27:57;;;;;;;7.93;4.38;;;8.60;99.90;;;;;;4940247;28;95542;-33
2023/05/25 00:30:22;;;;;;;8.50;4.43;;;8.60;99.90;;;;;;4938965;28;93810;-34
2023/05/25 00:32:48;;;;;;;4.97;4.15;;;8.60;99.90;;;;;;4939955;28;92644;-33
2023/05/25 00:35:14;;;;;;;7.10;3.47;;;8.60;99.90;;;;;;4938990;28;96586;-33
2023/05/25 00:37:40;;;;;;;10.13;3.78;;;8.50;99.90;;;;;;4939818;28;94316;-32
2023/05/25 00:40:12;;;;;;;8.32;4.70;;;8.50;99.90;;;;;;4939718;28;92883;-32
2023/05/25 00:42:38;;;;;;;9.15;3.75;;;8.50;99.90;;;;;;4937959;28;92644;-36
2023/05/25 00:45:04;;;;;;;7.88;3.85;;;8.50;99.90;;;;;;4939317;28;94510;-33
2023/05/25 00:47:30;;;;;;;6.65;4.47;;;8.50;99.90;;;;;;4938609;28;94664;-32
2023/05/25 00:49:56;;;;;;;9.20;5.35;;;8.50;99.90;;;;;;4939686;28;94598;-32
2023/05/25 00:52:22;;;;;;;10.43;4.10;;;8.40;99.90;;;;;;4938883;28;92218;-33
2023/05/25 00:54:53;;;;;;;5.90;3.58;;;8.40;99.90;;;;;;4938591;28;94707;-35
2023/05/25 00:57:22;;;;;;;8.15;3.90;;;8.40;99.90;;;;;;4938828;28;94530;-35
2023/05/25 00:59:52;;;;;;;10.75;4.20;;;8.40;99.90;;;;;;4939192;28;92163;-30
2023/05/25 01:02:19;;;;;;;9.68;4.85;;;8.40;99.90;;;;;;4939191;28;92994;-31
2023/05/25 01:04:51;;;;;;;7.75;5.05;;;8.30;99.90;;;;;;4939172;28;94696;-34
2023/05/25 01:07:27;;;;;;;8.43;3.72;;;8.30;99.90;;;;;;4938970;28;94123;-35
2023/05/25 01:10:05;;;;;;;8.15;4.38;;;8.30;99.90;;;;;;4939263;28;93031;-31
2023/05/25 01:12:34;;;;;;;6.35;4.30;;;;;;;;;;4939539;28;93250;-34
2023/05/25 01:15:00;;;;;;;;;;;8.20;99.90;;;;;;4939418;28;95887;-30
2023/05/25 01:17:27;;;;;;;12.32;5.22;;;8.20;99.90;;;;;;4939751;28;95287;-31
2023/05/25 01:19:53;;;;;;;11.98;4.63;;;8.20;99.90;;;;;;4938262;28;94008;-32
2023/05/25 01:22:31;;;;;;;8.18;4.53;;;8.20;99.90;;;;;;4939406;28;93121;-30
2023/05/25 01:25:12;;;;;;;6.55;3.38;;;8.20;99.90;;;;;;4939010;28;95607;-30
2023/05/25 01:27:50;;;;;;;17.55;4.90;;;8.20;99.90;;;;;;4939392;28;95106;-33
2023/05/25 01:30:18;;;;;;;13.23;5.30;;;8.20;99.90;;;;;;4938613;28;94187;-31
2023/05/25 01:32:44;;;;;;;9.20;4.05;;;8.10;99.90;;;;;;4938865;28;93149;-33
2023/05/25 01:35:12;;;;;;;7.63;4.03;;;8.20;99.90;;;;;;4938164;28;94429;-31
2023/05/25 01:37:43;;;;;;;16.90;5.57;;;8.10;99.90;;;;;;4939253;28;95005;-35
2023/05/25 01:40:10;;;;;;;7.15;4.82;;;8.10;99.90;;;;;;4937879;28;93828;-31
2023/05/25 01:42:35;;;;;;;9.38;4.60;;;8.10;99.90;;;;;;4939067;28;93468;-33
2023/05/25 01:45:01;;;;;;;10.10;5.50;;;8.10;99.90;;;;;;4938559;28;94720;-35
2023/05/25 01:47:52;;;;;;;7.57;4.22;;;8.10;99.90;;;;;;4938604;28;93762;-33
2023/05/25 01:50:32;;;;;;;6.85;4.40;;;8.10;99.90;;;;;;4938524;28;93479;-35
2023/05/25 01:53:21;;;;;;;4.90;3.60;;;8.10;99.90;;;;;;4936874;28;92181;-35
2023/05/25 01:55:56;;;;;;;9.10;4.05;;;8.00;99.90;;;;;;4938391;28;95321;-32
2023/05/25 01:58:23;;;;;;;10.95;5.47;;;8.00;99.90;;;;;;4938666;28;94220;-32
2023/05/25 02:00:50;;;;;;;4.57;3.80;;;8.00;99.90;;;;;;4938779;28;93457;-33
2023/05/25 02:03:16;;;;;;;15.15;5.18;;;8.00;99.90;;;;;;4937953;28;93443;-32
2023/05/25 02:05:43;;;;;;;8.90;5.05;;;8.00;99.90;;;;;;4937487;28;95863;-33
2023/05/25 02:08:08;;;;;;;7.65;4.72;;;7.90;99.90;;;;;;4938475;28;95329;-31
2023/05/25 02:10:34;;;;;;;8.52;4.78;;;8.00;99.90;;;;;;4938252;28;92117;-31
2023/05/25 02:12:59;;;;;;;9.63;4.90;;;8.00;99.90;;;;;;4938704;28;94652;-32
2023/05/25 02:15:29;;;;;;;8.52;5.18;;;8.00;99.90;;;;;;4937011;28;95134;-33
2023/05/25 02:17:56;;;;;;;8.95;4.28;;;7.90;99.90;;;;;;4937612;28;96079;-33
2023/05/25 02:20:22;;;;;;;7.40;4.68;;;7.90;99.90;;;;;;4937323;28;94166;-36
2023/05/25 02:22:48;;;;;;;5.22;3.75;;;7.90;99.90;;;;;;4939218;28;92724;-31
2023/05/25 02:25:13;;;;;;;10.30;6.03;;;7.90;99.90;;;;;;4937245;28;94865;-31
2023/05/25 02:27:39;;;;;;;9.80;5.45;;;7.90;99.90;;;;;;4937740;28;94593;-33
2023/05/25 02:30:06;;;;;;;5.82;3.72;;;7.90;99.90;;;;;;4937195;28;94451;-36
2023/05/25 02:32:32;;;;;;;6.82;3.53;;;7.80;99.90;;;;;;4937566;28;92131;-33
2023/05/25 02:34:58;;;;;;;7.20;4.30;;;7.80;99.90;;;;;;4937892;28;95106;-33
2023/05/25 02:37:24;;;;;;;7.75;3.88;;;7.80;99.90;;;;;;4937321;28;94397;-32
2023/05/25 02:39:49;;;;;;;8.55;5.20;;;7.80;99.90;;;;;;4937637;28;94013;-35
2023/05/25 02:42:15;;;;;;;9.50;4.60;;;7.90;99.90;;;;;;4937470;28;93707;-34
2023/05/25 02:44:46;;;;;;;5.65;3.65;;;7.80;99.90;;;;;;4937389;28;93300;-34
2023/05/25 02:47:13;;;;;;;11.48;4.80;;;7.80;99.90;;;;;;4937894;28;93977;-35
2023/05/25 02:49:39;;;;;;;10.57;5.65;;;7.70;99.90;;;;;;4937896;28;94510;-31
2023/05/25 02:52:05;;;;;;;7.40;3.17;;;7.70;99.90;;;;;;4937651;28;93185;-33
2023/05/25 02:54:30;;;;;;;8.35;4.93;;;7.70;99.90;;;;;;4935875;28;95198;-32
2023/05/25 02:56:56;;;;;;;6.45;4.97;;;7.70;99.90;;;;;;4937636;28;95440;-32
2023/05/25 02:59:23;;;;;;;9.80;4.38;;;7.70;99.90;;;;;;4936052;28;94137;-34
2023/05/25 03:01:49;;;;;;;13.55;5.00;;;7.70;99.90;;;;;;4937078;28;93856;-36
2023/05/25 03:04:15;;;;;;;7.13;4.60;;;7.70;99.90;;;;;;4936896;28;93553;-32
2023/05/25 03:06:40;;;;;;;10.27;5.38;;;7.70;99.90;;;;;;4937056;28;94016;-33
2023/05/25 03:09:08;;;;;;;16.55;6.05;;;7.70;99.90;;;;;;4937507;28;94161;-34
2023/05/25 03:11:33;;;;;;;8.55;5.32;;;7.70;99.90;;;;;;4937741;28;91456;-32
2023/05/25 03:13:59;;;;;;;9.98;4.50;;;7.70;99.90;;;;;;4936876;28;93372;-33
2023/05/25 03:16:25;;;;;;;10.27;5.38;;;7.60;99.90;;;;;;4936598;28;93968;-34
2023/05/25 03:18:50;;;;;;;10.07;5.45;;;7.70;99.90;;;;;;4936513;28;94907;-33
2023/05/25 03:21:16;;;;;;;8.40;6.45;;;7.60;99.90;;;;;;4919178;28;94520;-32
2023/05/25 03:23:42;;;;;;;11.35;4.65;;;7.60;99.90;;;;;;4937112;28;95424;-32
2023/05/25 03:26:07;;;;;;;6.50;4.65;;;7.60;99.90;;;;;;4935828;28;93973;-31
2023/05/25 03:28:33;;;;;;;7.40;4.97;;;7.60;99.90;;;;;;4937307;28;93055;-34
2023/05/25 03:30:58;;;;;;;9.40;4.35;;;7.60;99.90;;;;;;4936878;28;92107;-32
2023/05/25 03:33:24;;;;;;;10.50;4.95;;;7.60;99.90;;;;;;4937295;28;94810;-34
2023/05/25 03:35:50;;;;;;;7.20;5.10;;;7.60;99.90;;;;;;4936543;28;94621;-33
2023/05/25 03:38:15;;;;;;;11.88;4.88;;;7.60;99.90;;;;;;4937531;28;94279;-32
2023/05/25 03:40:41;;;;;;;9.02;4.70;;;7.60;99.90;;;;;;4936626;28;94423;-32
2023/05/25 03:43:06;;;;;;;5.45;3.55;;;7.60;99.90;;;;;;4936233;28;96209;-31
2023/05/25 03:45:32;;;;;;;8.80;4.50;;;7.60;99.90;;;;;;4936954;28;95486;-31
2023/05/25 03:47:58;;;;;;;11.45;5.28;;;7.60;99.90;;;;;;4937003;28;93044;-30
2023/05/25 03:50:23;;;;;;;7.32;4.78;;;7.60;99.90;;;;;;4936704;28;94303;-32
2023/05/25 03:52:49;;;;;;;7.32;5.05;;;7.60;99.90;;;;;;4936250;28;93880;-33
2023/05/25 03:55:15;;;;;;;6.45;4.32;;;7.60;99.90;;;;;;4935736;28;94058;-31
2023/05/25 03:57:40;;;;;;;10.90;4.40;;;7.60;99.90;;;;;;4937409;28;94333;-31
2023/05/25 04:00:08;;;;;;;10.18;5.90;;;7.70;99.90;;;;;;4936486;28;93156;-36
2023/05/25 04:02:33;;;;;;;9.98;4.47;;;7.70;99.90;;;;;;4936936;28;94558;-35
2023/05/25 04:04:59;;;;;;;7.63;3.92;;;7.70;99.90;;;;;;4936194;28;94767;-33
2023/05/25 04:07:26;;;;;;;10.45;5.90;;;7.70;99.90;;;;;;4936016;28;95352;-33
2023/05/25 04:09:52;;;;;;;7.13;4.78;;;7.70;99.90;;;;;;4936746;28;93514;-31
2023/05/25 04:12:18;;;;;;;13.07;5.78;;;7.70;99.90;;;;;;4936062;28;94984;-34
2023/05/25 04:14:44;;;;;;;7.40;5.13;;;7.80;99.90;;;;;;4937169;28;95283;-33
2023/05/25 04:17:10;;;;;;;7.40;4.05;;;7.80;99.90;;;;;;4938095;28;92962;-31
2023/05/25 04:19:36;;;;;;;10.48;4.40;;;7.90;99.90;;;;;;4986872;22;93364;-31
2023/05/25 04:22:01;;;;;;;6.32;4.28;;;7.90;99.90;;;;;;4959171;28;94683;-32
2023/05/25 04:24:27;;;;;;;7.45;5.47;;;7.90;99.90;;;;;;4958703;28;95261;-34
2023/05/25 04:26:52;;;;;;;8.82;5.53;;;8.00;99.90;;;;;;4960107;28;92185;-32
2023/05/25 04:29:18;;;;;;;8.32;4.78;;;8.10;99.90;;;;;;4958593;28;92191;-30
2023/05/25 04:31:45;;;;;;;10.50;4.88;;;8.20;99.90;;;;;;4958540;28;95916;-32
2023/05/25 04:34:13;;;;;;;11.30;5.80;;;8.30;99.90;;;;;;4979298;28;94608;-33
2023/05/25 04:36:41;;;;;;;10.75;6.05;;;8.50;99.90;;;;;;4979155;28;94411;-31
2023/05/25 04:39:07;;;;;;;16.02;6.55;;;8.60;99.90;;;;;;4978335;28;92750;-32
2023/05/25 04:41:34;;;;;;;9.60;4.85;;;8.80;99.90;;;;;;4978224;28;94964;-34
2023/05/25 04:44:00;;;;;;;8.90;5.95;;;9.00;99.90;;;;;;4979188;28;94745;-32
2023/05/25 04:46:25;;;;;;;11.30;5.60;;;9.20;99.90;;;;;;4978538;28;92269;-34
2023/05/25 04:48:51;;;;;;;13.50;5.70;;;9.40;99.90;;;;;;4979772;28;91626;-32
2023/05/25 04:51:16;;;;;;;9.50;4.50;;;9.60;99.90;;;;;;4977715;28;96219;-31
2023/05/25 04:53:42;;;;;;;9.63;5.32;;;9.70;99.90;;;;;;4978623;28;93974;-32
2023/05/25 04:56:08;;;;;;;9.55;4.72;;;9.90;99.90;;;;;;4978117;28;94195;-31
2023/05/25 04:58:33;;;;;;;6.53;5.72;;;10.20;99.90;;;;;;4978439;28;92562;-32
2023/05/25 05:00:59;;;;;;;11.95;6.30;;;10.30;99.90;;;;;;4978666;28;94303;-33
2023/05/25 05:03:24;;;;;;;9.50;5.50;;;10.50;99.90;;;;;;4977645;28;94330;-34
2023/05/25 05:05:50;;;;;;;11.18;4.93;;;10.60;99.90;;;;;;4979244;28;93122;-33
2023/05/25 05:08:16;;;;;;;6.82;5.65;;;10.80;99.90;;;;;;4978354;28;92840;-31
2023/05/25 05:10:42;;;;;;;16.92;6.95;;;11.00;99.90;;;;;;4978054;28;94877;-32
2023/05/25 05:13:09;;;;;;;13.05;7.63;;;11.20;99.90;;;;;;4979006;28;94555;-31
2023/05/25 05:15:35;;;;;;;14.43;6.67;;;11.40;99.90;;;;;;4978335;28;93051;-32
2023/05/25 05:18:01;;;;;;;15.00;8.35;;;11.50;99.90;;;;;;4977506;28;93024;-34
2023/05/25 05:20:26;;;;;;;12.93;7.03;;;11.60;99.90;;;;;;4978036;28;95961;-32
2023/05/25 05:22:53;;;;;;;12.52;6.90;;;11.80;99.90;;;;;;4977544;28;95649;-32
2023/05/25 05:25:18;;;;;;;13.68;7.03;;;11.90;99.90;;;;;;4978870;28;94289;-34
2023/05/25 05:27:44;;;;;;;12.02;7.30;;;12.00;99.90;;;;;;4975783;28;92763;-34
2023/05/25 05:30:10;;;;;;;15.18;7.95;;;12.20;99.90;;;;;;4977517;28;94569;-34
2023/05/25 05:32:35;;;;;;;18.50;7.13;;;12.30;99.90;;;;;;4978200;28;94666;-32
2023/05/25 05:35:01;;;;;;;15.43;7.13;;;12.50;99.90;;;;;;4977668;28;93252;-32
2023/05/25 05:37:27;;;;;;;19.55;7.03;;;12.70;99.90;;;;;;4978447;28;91461;-33
2023/05/25 05:39:52;;;;;;;12.15;7.20;;;12.80;99.90;;;;;;4977558;28;95211;-33
2023/05/25 05:42:18;;;;;;;15.95;7.95;;;13.00;99.90;;;;;;4976858;28;94717;-33
2023/05/25 05:44:44;;;;;;;14.85;6.57;;;13.10;99.90;;;;;;4977766;28;94398;-32
2023/05/25 05:47:11;;;;;;;14.85;8.45;;;13.40;99.90;;;;;;4977145;28;92983;-33
2023/05/25 05:49:38;;;;;;;10.98;6.78;;;13.50;99.90;;;;;;4978371;28;95821;-33
2023/05/25 05:52:03;;;;;;;12.30;6.60;;;13.70;99.90;;;;;;4977569;28;94622;-33
2023/05/25 05:54:29;;;;;;;17.40;8.40;;;13.90;99.90;;;;;;4977608;28;92452;-36
2023/05/25 05:56:55;;;;;;;13.15;7.18;;;13.90;99.90;;;;;;4963037;28;92313;-31
2023/05/25 05:59:21;;;;;;;8.30;7.25;;;13.90;99.90;;;;;;4976655;28;94869;-33
2023/05/25 06:01:47;;;;;;;19.98;7.15;;;14.00;99.90;;;;;;4978611;28;94601;-32
2023/05/25 06:04:14;;;;;;;12.93;7.90;;;14.20;99.90;;;;;;4977853;28;92293;-32
2023/05/25 06:06:41;;;;;;;13.65;6.65;;;14.20;99.90;;;;;;4977341;28;93011;-30
2023/05/25 06:09:07;;;;;;;13.63;7.37;;;14.40;99.90;;;;;;4976474;28;95736;-35
2023/05/25 06:11:35;;;;;;;16.05;8.05;;;14.60;99.90;;;;;;4977249;28;95933;-35
2023/05/25 06:14:01;;;;;;;14.23;7.68;;;14.50;99.90;;;;;;4964058;28;94314;-34
2023/05/25 06:16:26;;;;;;;15.30;8.27;;;14.70;99.90;;;;;;4946051;28;94366;-36
2023/05/25 06:18:52;;;;;;;15.50;7.57;;;14.70;99.90;;;;;;4947809;28;95010;-34
2023/05/25 06:21:18;;;;;;;12.60;8.00;;;14.60;99.90;;;;;;4952521;28;94733;-35
2023/05/25 06:23:43;;;;;;;10.15;6.25;;;14.40;99.90;;;;;;4955938;28;94785;-31
2023/05/25 06:26:09;;;;;;;13.80;7.55;;;14.60;99.90;;;;;;4955479;28;92682;-34
2023/05/25 06:28:35;;;;;;;14.13;8.23;;;14.50;99.90;;;;;;4937943;28;93428;-33
2023/05/25 06:31:01;;;;;;;9.32;6.05;;;14.30;99.90;;;;;;4954528;28;95618;-34
2023/05/25 06:33:26;;;;;;;13.63;6.85;;;14.30;99.90;;;;;;4954507;28;93164;-35
2023/05/25 06:35:55;;;;;;;16.33;6.78;;;14.30;99.90;;;;;;4955522;28;92210;-35
2023/05/25 06:38:21;;;;;;;15.10;7.30;;;14.10;99.90;;;;;;4954886;28;94356;-32
2023/05/25 06:40:46;;;;;;;18.33;6.43;;;14.20;99.90;;;;;;4954374;28;94523;-36
2023/05/25 06:43:12;;;;;;;11.50;5.78;;;13.90;99.90;;;;;;4955677;28;93024;-35
2023/05/25 06:45:39;;;;;;;16.85;6.75;;;13.90;99.90;;;;;;4955089;28;94184;-31
2023/05/25 06:48:04;;;;;;;8.95;5.93;;;13.90;99.90;;;;;;4939450;28;94524;-30
2023/05/25 06:50:30;;;;;;;10.40;5.95;;;14.00;99.90;;;;;;4959313;28;94342;-31
2023/05/25 06:52:55;;;;;;;16.65;6.82;;;13.90;99.90;;;;;;4973972;28;92880;-33
2023/05/25 06:55:21;;;;;;;13.63;6.50;;;13.90;99.90;;;;;;4976510;28;94340;-33
2023/05/25 06:57:47;;;;;;;7.78;5.68;;;13.90;99.90;;;;;;4964483;28;95650;-29
2023/05/25 07:00:13;;;;;;;12.15;6.35;;;14.20;99.90;;;;;;4957039;28;95395;-31
2023/05/25 07:02:38;;;;;;;7.82;4.07;;;14.30;99.90;;;;;;4956572;28;93604;-33
2023/05/25 07:05:05;;;;;;;14.25;5.13;;;14.50;99.90;;;;;;4956478;28;94009;-34
2023/05/25 07:07:33;;;;;;;7.20;4.32;;;14.60;99.90;;;;;;4956377;28;95105;-31
2023/05/25 07:10:01;;;;;;;12.82;4.97;;;14.50;99.90;;;;;;4956212;28;93926;-32
2023/05/25 07:12:27;;;;;;;8.13;4.70;;;14.50;99.90;;;;;;4956037;28;92154;-32
2023/05/25 07:14:52;;;;;;;11.88;6.03;;;14.40;99.90;;;;;;4957395;28;94002;-31
2023/05/25 07:17:18;;;;;;;8.13;3.17;;;14.30;99.90;;;;;;4956301;28;94768;-32
2023/05/25 07:19:43;;;;;;;8.98;4.72;;;14.20;99.90;;;;;;4955461;28;94671;-31
2023/05/25 07:22:09;;;;;;;14.50;3.70;;;14.30;99.90;;;;;;4956519;28;94081;-32
2023/05/25 07:24:35;;;;;;;10.77;4.45;;;14.40;99.90;;;;;;4956613;28;94839;-32
2023/05/25 07:27:02;;;;;;;6.13;3.63;;;14.40;99.90;;;;;;4957121;28;94554;-34
2023/05/25 07:29:28;;;;;;;7.95;4.55;;;14.60;99.90;;;;;;4956189;28;94296;-30
2023/05/25 07:31:53;;;;;;;11.93;4.28;;;14.90;99.90;;;;;;4956719;28;92194;-35
2023/05/25 07:34:19;;;;;;;7.70;3.83;;;15.00;99.90;;;;;;4956827;28;93496;-32
2023/05/25 07:36:45;;;;;;;9.88;4.75;;;14.90;99.90;;;;;;4956427;28;92988;-33
2023/05/25 07:39:11;;;;;;;10.57;5.25;;;14.90;99.90;;;;;;4957226;28;94307;-35
2023/05/25 07:41:37;;;;;;;9.07;4.30;;;14.80;99.90;;;;;;4956353;28;94643;-32
2023/05/25 07:44:02;;;;;;;4.18;2.83;;;14.80;99.90;;;;;;4956651;28;93385;-31
2023/05/25 07:46:28;;;;;;;13.60;4.65;;;14.70;99.90;;;;;;4956157;28;95787;-30
2023/05/25 07:48:55;;;;;;;10.73;4.47;;;14.60;99.90;;;;;;4955767;28;96596;-31
2023/05/25 07:51:22;;;;;;;9.20;4.47;;;14.80;99.90;;;;;;4959008;28;92913;-31
2023/05/25 07:53:48;;;;;;;9.77;3.60;;;14.80;99.90;;;;;;4960660;28;94553;-31
2023/05/25 07:56:14;;;;;;;8.93;3.70;;;14.90;99.90;;;;;;4958950;28;94105;-32
2023/05/25 07:58:40;;;;;;;22.73;4.13;;;14.90;99.90;;;;;;4959458;28;94112;-33
2023/05/25 08:01:05;;;;;;;10.25;5.90;;;15.00;99.90;;;;;;4960144;28;92638;-32
2023/05/25 08:03:31;;;;;;;6.70;4.38;;;15.10;99.90;;;;;;4960418;28;93898;-30
2023/05/25 08:05:57;;;;;;;11.77;5.00;;;15.20;99.90;;;;;;4959799;28;94841;-33
2023/05/25 08:08:23;;;;;;;9.50;4.60;;;15.10;99.90;;;;;;4959423;28;94221;-31
2023/05/25 08:10:49;;;;;;;11.38;4.40;;;15.00;99.90;;;;;;4959905;28;94097;-33
2023/05/25 08:13:15;;;;;;;7.60;4.68;;;15.10;99.90;;;;;;4959238;28;92650;-31
2023/05/25 08:15:40;;;;;;;12.23;6.10;;;15.70;99.90;;;;;;4959746;28;94649;-32
2023/05/25 08:18:06;;;;;;;8.55;4.03;;;15.70;99.90;;;;;;4959006;28;95054;-36
2023/05/25 08:20:32;;;;;;;7.57;4.60;;;15.40;99.90;;;;;;4959629;28;92540;-33
2023/05/25 08:22:58;;;;;;;9.90;3.83;;;15.20;99.90;;;;;;4958951;28;94224;-32
2023/05/25 08:25:23;;;;;;;7.85;4.05;;;15.10;99.90;;;;;;4958510;28;94520;-30
2023/05/25 08:27:49;;;;;;;12.85;6.00;;;15.10;99.90;;;;;;4959507;28;94263;-34
2023/05/25 08:30:14;;;;;;;19.23;7.03;;;14.80;99.90;;;;;;4959497;28;94150;-32
2023/05/25 08:32:40;;;;;;;10.65;5.72;;;14.70;99.90;;;;;;4958743;28;93395;-35
2023/05/25 08:35:06;;;;;;;10.52;5.15;;;14.50;99.90;;;;;;4957780;28;95363;-35
2023/05/25 08:37:33;;;;;;;14.13;5.65;;;14.50;99.90;;;;;;4958001;28;94822;-32
2023/05/25 08:40:01;;;;;;;10.10;4.50;;;14.50;99.90;;;;;;4957556;28;94053;-35
2023/05/25 08:42:29;;;;;;;17.50;5.18;;;14.50;99.90;;;;;;4957887;28;93531;-32
2023/05/25 08:44:55;;;;;;;19.70;5.78;;;14.30;99.90;;;;;;4924443;28;94742;-31
2023/05/25 08:47:21;;;;;;;14.20;5.50;;;14.50;99.90;;;;;;4949894;28;94564;-35
2023/05/25 08:49:48;;;;;;;16.98;6.07;;;14.50;99.90;;;;;;4959639;28;92214;-35
2023/05/25 08:52:20;;;;;;;17.52;6.03;;;14.60;99.90;;;;;;4959173;28;92630;-31
2023/05/25 08:54:49;;;;;;;15.68;4.40;;;14.80;99.90;;;;;;4949562;28;94662;-35
2023/05/25 08:57:24;;;;;;;12.63;5.22;;;15.40;99.90;;;;;;4955217;28;94563;-34
2023/05/25 09:00:09;;;;;;;13.60;5.55;;;16.00;99.90;;;;;;4956613;28;94158;-35
2023/05/25 09:02:45;;;;;;;14.60;5.70;;;15.70;99.90;;;;;;4956043;28;93911;-31
2023/05/25 09:05:12;;;;;;;17.30;5.57;;;15.60;99.90;;;;;;4956843;28;94204;-34
2023/05/25 09:07:40;;;;;;;21.75;7.55;;;15.40;99.90;;;;;;4955984;28;96377;-33
2023/05/25 09:10:07;;;;;;;17.10;6.97;;;15.40;99.90;;;;;;4955843;28;94271;-30
2023/05/25 09:12:35;;;;;;;12.57;5.38;;;15.60;99.90;;;;;;4956426;28;93277;-34
2023/05/25 09:15:00;;;;;;;9.88;4.07;;;16.20;99.90;;;;;;4956388;28;94798;-33
2023/05/25 09:17:26;;;;;;;23.45;6.90;;;16.20;99.90;;;;;;4951755;28;93118;-32
2023/05/25 09:19:53;;;;;;;24.65;5.95;;;16.10;99.90;;;;;;4936789;28;94048;-35
2023/05/25 09:22:19;;;;;;;10.52;4.32;;;16.20;99.90;;;;;;4936528;28;93216;-34
2023/05/25 09:24:46;;;;;;;12.10;5.47;;;16.40;99.90;;;;;;4935821;28;95656;-34
2023/05/25 09:27:16;;;;;;;14.50;6.13;;;16.70;99.90;;;;;;4936335;28;95128;-36
2023/05/25 09:29:42;;;;;;;18.80;5.90;;;16.90;99.00;;;;;;4936909;28;93009;-31
2023/05/25 09:32:08;;;;;;;15.27;4.30;;;16.90;99.90;;;;;;4936610;28;92940;-32
2023/05/25 09:34:34;;;;;;;18.65;6.00;;;16.90;99.90;;;;;;4935640;28;94846;-33
2023/05/25 09:37:09;;;;;;;24.70;7.10;;;16.70;99.90;;;;;;4936238;28;94472;-34
2023/05/25 09:39:35;;;;;;;12.00;5.78;;;16.80;99.90;;;;;;4936666;28;93061;-33
2023/05/25 09:42:01;;;;;;;19.70;6.53;;;16.60;99.90;;;;;;4936839;28;92686;-31
2023/05/25 09:44:27;;;;;;;20.17;6.38;;;16.30;99.90;;;;;;4936654;28;94766;-31
2023/05/25 09:46:53;;;;;;;11.80;5.20;;;16.20;99.90;;;;;;4935989;28;94486;-33
2023/05/25 09:49:19;;;;;;;14.73;6.43;;;15.90;99.90;;;;;;4935428;28;93240;-31
2023/05/25 09:51:46;;;;;;;21.25;6.72;;;15.80;99.90;;;;;;4935978;28;93224;-35
2023/05/25 09:54:12;;;;;;;14.57;5.22;;;15.70;99.90;;;;;;4935234;28;94270;-34
2023/05/25 09:56:37;;;;;;;15.68;6.78;;;15.70;99.90;;;;;;4936025;28;94935;-35
2023/05/25 09:59:03;;;;;;;13.65;6.03;;;15.90;99.90;;;;;;4936072;28;94480;-32
2023/05/25 10:01:30;;;;;;;13.15;6.93;;;15.90;99.90;;;;;;4935930;28;94538;-35
2023/05/25 10:03:58;;;;;;;11.27;5.53;;;15.80;99.90;;;;;;4935899;28;94514;-33
2023/05/25 10:06:25;;;;;;;15.82;6.03;;;16.20;99.90;;;;;;4935910;28;94502;-32
2023/05/25 10:08:52;;;;;;;19.88;5.75;;;16.40;99.00;;;;;;4936343;28;92857;-30
2023/05/25 10:11:20;;;;;;;11.97;5.57;;;16.40;98.20;;;;;;4917985;28;93424;-33
2023/05/25 10:13:46;;;;;;;17.37;5.40;;;16.20;94.40;;;;;;4934884;28;96028;-33
2023/05/25 10:16:17;;;;;;;14.23;5.70;;;16.00;90.70;;;;;;4934693;28;95680;-30
2023/05/25 10:19:08;;;;;;;15.45;6.70;;;15.80;98.00;;;;;;4935737;28;94317;-32
2023/05/25 10:21:36;;;;;;;10.80;4.68;;;16.00;92.70;;;;;;4936017;28;92544;-33
2023/05/25 10:24:35;;;;;;;13.32;4.90;;;16.20;99.20;;;;;;4936305;28;94745;-33
2023/05/25 10:27:02;;;;;;;21.05;6.35;;;16.10;99.90;;;;;;4955642;28;94398;-35
2023/05/25 10:29:30;;;;;;;10.57;6.37;;;15.80;99.90;;;;;;4954847;28;93929;-34
2023/05/25 10:31:57;;;;;;;14.93;6.33;;;15.90;99.90;;;;;;4954560;28;93730;-34
2023/05/25 10:34:23;;;;;;;19.92;6.53;;;16.30;94.30;;;;;;4954776;28;95114;-35
2023/05/25 10:36:49;;;;;;;13.75;5.90;;;16.40;99.90;;;;;;4954590;28;93877;-34
2023/05/25 10:39:19;;;;;;;15.27;6.43;;;16.10;90.10;;;;;;4954697;28;94509;-35
2023/05/25 10:41:45;;;;;;;18.17;6.32;;;16.30;99.90;;;;;;4954360;28;92230;-34
2023/05/25 10:44:12;;;;;;;15.13;6.72;;;16.60;94.90;;;;;;4954243;28;94696;-30
2023/05/25 10:46:38;;;;;;;12.73;4.63;;;16.60;99.20;;;;;;4954983;28;94584;-32
2023/05/25 10:49:04;;;;;;;14.20;4.50;;;16.40;86.90;;;;;;4955487;28;94298;-34
2023/05/25 10:51:40;;;;;;;19.33;7.10;;;16.40;82.10;;;;;;4954433;28;94345;-36
2023/05/25 10:54:06;;;;;;;9.55;4.53;;;16.30;82.80;;;;;;4954587;28;94436;-33
2023/05/25 10:56:32;;;;;;;23.27;5.47;;;16.40;92.60;;;;;;4954557;28;94645;-34
2023/05/25 10:58:58;;;;;;;14.13;5.13;;;16.00;86.50;;;;;;4955965;28;94272;-35
2023/05/25 11:01:24;;;;;;;7.57;4.15;;;16.20;90.10;;;;;;4954524;28;93396;-33
2023/05/25 11:03:54;;;;;;;13.80;5.07;;;16.20;90.60;;;;;;4953939;28;96106;-31
2023/05/25 11:06:22;;;;;;;11.80;5.70;;;16.30;89.60;;;;;;4954120;28;95980;-32
2023/05/25 11:08:54;;;;;;;11.95;5.07;;;16.20;92.40;;;;;;4955391;28;92143;-31
2023/05/25 11:11:21;;;;;;;16.02;5.13;;;16.30;81.90;;;;;;4954121;28;94185;-31
2023/05/25 11:13:48;;;;;;;13.73;5.82;;;16.40;84.40;;;;;;4955205;28;95574;-32
2023/05/25 11:16:23;;;;;;;16.02;5.50;;;16.50;86.40;;;;;;4936404;28;94141;-31
2023/05/25 11:18:51;;;;;;;19.95;6.50;;;16.70;81.10;;;;;;4953841;28;92292;-33
2023/05/25 11:21:39;;;;;;;12.27;5.85;;;16.60;80.70;;;;;;4954875;28;93125;-34
2023/05/25 11:24:14;;;;;;;14.07;5.20;;;16.70;99.90;;;;;;4954377;28;94676;-35
2023/05/25 11:26:54;;;;;;;14.65;5.38;;;16.90;82.70;;;;;;4956948;28;96478;-35
2023/05/25 11:29:21;;;;;;;15.85;5.10;;;17.00;95.40;;;;;;4957495;28;93314;-35
2023/05/25 11:31:52;;;;;;;13.45;5.00;;;16.80;85.20;;;;;;4957670;28;94267;-31
2023/05/25 11:34:20;;;;;;;17.15;6.00;;;16.60;82.00;;;;;;4954364;28;96212;-31
2023/05/25 11:36:46;;;;;;;7.53;4.55;;;16.40;82.70;;;;;;4952082;28;94847;-34
2023/05/25 11:39:11;;;;;;;13.32;5.60;;;16.60;94.00;;;;;;4957610;28;93334;-32
2023/05/25 11:41:45;;;;;;;10.27;4.43;;;16.90;84.00;;;;;;4958035;28;92523;-35
2023/05/25 11:44:12;;;;;;;10.50;4.82;;;16.50;79.90;;;;;;4956928;28;95149;-34
2023/05/25 11:46:42;;;;;;;10.52;4.82;;;16.50;91.60;;;;;;4938842;28;94039;-34
2023/05/25 11:49:08;;;;;;;14.02;5.45;;;16.30;86.70;;;;;;4937743;28;93005;-36
2023/05/25 11:51:35;;;;;;;14.90;6.13;;;16.40;90.40;;;;;;4937033;28;94032;-33
2023/05/25 11:54:01;;;;;;;13.05;5.13;;;16.40;91.10;;;;;;4936492;28;95827;-36
2023/05/25 11:56:31;;;;;;;12.48;6.40;;;16.60;90.00;;;;;;4937536;28;95940;-31
2023/05/25 11:58:57;;;;;;;8.82;4.72;;;16.70;95.70;;;;;;4937854;28;92577;-33
2023/05/25 12:01:23;;;;;;;14.50;5.43;;;16.40;86.30;;;;;;4937426;28;94187;-32
2023/05/25 12:03:56;;;;;;;14.57;5.68;;;16.20;92.30;;;;;;4937707;28;94745;-36
2023/05/25 12:06:25;;;;;;;15.25;6.65;;;16.20;91.70;;;;;;4937647;28;94468;-32
2023/05/25 12:08:51;;;;;;;17.02;6.38;;;16.40;98.50;;;;;;4937556;28;94193;-31
2023/05/25 12:11:17;;;;;;;15.73;6.63;;;16.20;88.20;;;;;;4937948;28;92504;-35
2023/05/25 12:13:43;;;;;;;16.70;6.45;;;16.50;93.20;;;;;;4944689;28;94071;-32
2023/05/25 12:16:09;;;;;;;12.00;5.50;;;16.40;83.80;;;;;;4939450;28;95252;-32
2023/05/25 12:18:35;;;;;;;14.85;5.03;;;16.30;87.70;;;;;;4937571;28;94015;-33
2023/05/25 12:21:03;;;;;;;10.32;6.50;;;16.30;89.90;;;;;;4940029;28;94311;-33
2023/05/25 12:23:28;;;;;;;18.45;6.32;;;16.30;86.60;;;;;;4923208;28;94663;-33
2023/05/25 12:26:15;;;;;;;18.58;5.95;;;16.30;82.20;;;;;;4937459;28;94358;-35
2023/05/25 12:29:03;;;;;;;14.80;6.25;;;16.60;93.50;;;;;;4937651;28;93370;-36
2023/05/25 12:31:34;;;;;;;13.38;5.38;;;16.80;95.00;;;;;;4937052;28;93305;-32
2023/05/25 12:34:14;;;;;;;11.38;5.78;;;16.60;99.90;;;;;;4937333;28;94893;-31
2023/05/25 12:36:41;;;;;;;14.80;7.40;;;16.50;93.10;;;;;;4937320;28;94534;-34
2023/05/25 12:39:08;;;;;;;10.57;5.88;;;16.30;86.70;;;;;;4937089;28;93535;-34
2023/05/25 12:41:51;;;;;;;19.95;6.60;;;16.50;91.00;;;;;;4937259;28;92221;-30
2023/05/25 12:44:31;;;;;;;30.63;6.25;;;16.30;88.20;;;;;;4936798;28;95641;-35
2023/05/25 12:47:18;;;;;;;19.55;5.93;;;16.30;91.70;;;;;;4937107;28;95752;-34